createdAt,value
2022-12-01T00:01:20.116Z,14.85
2022-12-01T00:03:47.672Z,17.17
2022-12-01T00:06:17.309Z,15.95
2022-12-01T00:09:05.754Z,14.98
2022-12-01T00:11:34.511Z,15.75
2022-12-01T00:14:02.085Z,14.55
2022-12-01T00:16:29.722Z,15.38
2022-12-01T00:18:57.351Z,12.68
2022-12-01T00:21:25.769Z,14.57
2022-12-01T00:23:55.141Z,15.70
2022-12-01T00:26:23.529Z,14.75
2022-12-01T00:28:51.743Z,15.00
2022-12-01T00:31:19.588Z,16.45
2022-12-01T00:33:47.220Z,13.07
2022-12-01T00:36:14.675Z,16.67
2022-12-01T00:38:42.050Z,15.05
2022-12-01T00:41:09.731Z,14.60
2022-12-01T00:43:37.180Z,14.60
2022-12-01T00:46:04.617Z,14.90
2022-12-01T00:48:32.250Z,15.95
2022-12-01T00:50:59.549Z,16.25
2022-12-01T00:53:26.869Z,14.23
2022-12-01T00:55:54.482Z,15.50
2022-12-01T00:58:22.659Z,16.23
2022-12-01T01:00:50.131Z,14.23
2022-12-01T01:03:17.766Z,17.83
2022-12-01T01:05:45.088Z,15.80
2022-12-01T01:08:14.931Z,15.88
2022-12-01T01:10:45.052Z,15.23
2022-12-01T01:13:13.448Z,17.65
2022-12-01T01:15:41.090Z,17.05
2022-12-01T01:18:10.426Z,16.77
2022-12-01T01:20:37.773Z,17.95
2022-12-01T01:23:05.095Z,19.50
2022-12-01T01:25:32.885Z,17.23
2022-12-01T01:28:00.199Z,19.42
2022-12-01T01:30:27.761Z,17.02
2022-12-01T01:32:55.684Z,16.75
2022-12-01T01:35:23.004Z,17.42
2022-12-01T01:37:50.977Z,16.27
2022-12-01T01:40:18.829Z,17.35
2022-12-01T01:42:46.337Z,19.40
2022-12-01T01:45:21.257Z,19.75
2022-12-01T01:47:50.171Z,18.27
2022-12-01T01:50:19.808Z,19.67
2022-12-01T01:52:51.829Z,20.05
2022-12-01T01:55:19.641Z,17.12
2022-12-01T01:57:46.997Z,20.15
2022-12-01T02:00:17.349Z,16.40
2022-12-01T02:02:46.692Z,17.33
2022-12-01T02:05:23.748Z,16.02
2022-12-01T02:07:52.512Z,18.30
2022-12-01T02:10:23.497Z,21.08
2022-12-01T02:13:26.958Z,19.67
2022-12-01T02:16:12.995Z,19.85
2022-12-01T02:18:57.332Z,19.00
2022-12-01T02:21:54.649Z,19.45
2022-12-01T02:24:46.933Z,20.95
2022-12-01T02:27:45.562Z,21.08
2022-12-01T02:30:37.658Z,20.88
2022-12-01T02:33:14.328Z,22.77
2022-12-01T02:35:56.156Z,22.85
2022-12-01T02:38:38.660Z,23.38
2022-12-01T02:41:23.145Z,22.73
2022-12-01T02:44:14.609Z,22.90
2022-12-01T02:46:46.805Z,21.55
2022-12-01T02:49:17.551Z,27.92
2022-12-01T02:51:45.346Z,28.38
2022-12-01T02:54:14.719Z,24.23
2022-12-01T02:56:44.908Z,28.80
2022-12-01T02:59:14.092Z,23.00
2022-12-01T03:02:00.039Z,23.48
2022-12-01T03:04:45.684Z,23.35
2022-12-01T03:07:36.451Z,23.23
2022-12-01T03:10:29.597Z,19.92
2022-12-01T03:13:28.170Z,20.65
2022-12-01T03:16:07.201Z,18.92
2022-12-01T03:18:54.896Z,17.52
2022-12-01T03:21:25.190Z,19.33
2022-12-01T03:24:02.062Z,21.27
2022-12-01T03:26:30.389Z,20.08
2022-12-01T03:29:06.733Z,20.12
2022-12-01T03:31:40.898Z,17.48
2022-12-01T03:34:13.684Z,16.67
2022-12-01T03:36:48.294Z,17.75
2022-12-01T03:41:52.027Z,19.45
2022-12-01T03:44:21.969Z,16.52
2022-12-01T03:46:56.898Z,18.67
2022-12-01T03:49:25.770Z,20.12
2022-12-01T03:51:59.273Z,16.33
2022-12-01T03:55:05.492Z,17.40
2022-12-01T04:00:02.997Z,0.93
2022-12-01T04:02:40.394Z,16.45
2022-12-01T04:05:11.369Z,17.40
2022-12-01T04:07:39.377Z,16.02
2022-12-01T04:10:07.529Z,15.93
2022-12-01T04:12:35.220Z,16.95
2022-12-01T04:15:11.143Z,17.08
2022-12-01T04:17:39.239Z,15.85
2022-12-01T04:20:07.673Z,17.48
2022-12-01T04:22:35.000Z,17.35
2022-12-01T04:25:03.669Z,17.60
2022-12-01T04:27:31.023Z,14.93
2022-12-01T04:29:58.352Z,15.40
2022-12-01T04:32:27.143Z,16.17
2022-12-01T04:34:54.430Z,17.12
2022-12-01T04:37:21.851Z,16.73
2022-12-01T04:39:49.690Z,16.00
2022-12-01T04:42:17.205Z,16.83
2022-12-01T04:44:44.517Z,15.95
2022-12-01T04:47:12.090Z,18.08
2022-12-01T04:49:39.376Z,22.27
2022-12-01T04:52:07.499Z,23.17
2022-12-01T04:54:35.126Z,17.70
2022-12-01T04:57:02.436Z,18.02
2022-12-01T04:59:29.826Z,16.52
2022-12-01T05:01:57.484Z,16.60
2022-12-01T05:04:24.832Z,17.20
2022-12-01T05:06:54.413Z,15.90
2022-12-01T05:09:22.017Z,17.40
2022-12-01T05:11:49.317Z,16.75
2022-12-01T05:14:16.635Z,18.12
2022-12-01T05:16:44.222Z,16.90
2022-12-01T05:19:30.491Z,18.52
2022-12-01T05:21:58.058Z,17.77
2022-12-01T05:24:25.740Z,22.27
2022-12-01T05:26:53.044Z,22.58
2022-12-01T05:29:20.624Z,19.95
2022-12-01T05:31:49.014Z,19.50
2022-12-01T05:34:16.506Z,19.48
2022-12-01T05:36:44.079Z,23.12
2022-12-01T05:39:11.387Z,16.80
2022-12-01T05:41:38.716Z,19.12
2022-12-01T05:44:06.300Z,18.77
2022-12-01T05:46:33.635Z,20.42
2022-12-01T05:49:00.944Z,16.40
2022-12-01T05:51:28.508Z,19.33
2022-12-01T05:53:55.812Z,21.73
2022-12-01T05:56:23.130Z,20.55
2022-12-01T05:58:50.684Z,21.95
2022-12-01T06:01:18.098Z,19.17
2022-12-01T06:03:45.735Z,19.83
2022-12-01T06:06:13.055Z,19.30
2022-12-01T06:08:40.411Z,5.93
2022-12-01T06:11:07.993Z,38.13
2022-12-01T06:13:35.340Z,23.40
2022-12-01T06:16:05.385Z,25.58
2022-12-01T06:18:35.217Z,20.52
2022-12-01T06:21:03.011Z,21.30
2022-12-01T06:23:30.859Z,22.35
2022-12-01T06:25:58.848Z,20.75
2022-12-01T06:28:26.180Z,23.08
2022-12-01T06:30:57.772Z,25.88
2022-12-01T06:33:28.804Z,22.67
2022-12-01T06:36:02.997Z,25.73
2022-12-01T06:38:31.577Z,24.37
2022-12-01T06:40:59.110Z,26.40
2022-12-01T06:43:26.692Z,23.48
2022-12-01T06:46:00.808Z,22.87
2022-12-01T06:48:28.885Z,26.48
2022-12-01T06:51:00.201Z,28.08
2022-12-01T06:53:28.703Z,26.37
2022-12-01T06:56:00.987Z,24.95
2022-12-01T06:58:28.687Z,26.42
2022-12-01T07:00:57.417Z,28.02
2022-12-01T07:03:24.836Z,28.95
2022-12-01T07:05:58.588Z,30.37
2022-12-01T07:08:30.285Z,32.50
2022-12-01T07:11:02.608Z,30.10
2022-12-01T07:13:33.695Z,25.52
2022-12-01T07:16:03.112Z,31.95
2022-12-01T07:18:31.416Z,28.38
2022-12-01T07:21:03.711Z,32.70
2022-12-01T07:23:31.748Z,26.60
2022-12-01T07:26:07.795Z,27.30
2022-12-01T07:28:35.404Z,28.55
2022-12-01T07:31:09.110Z,29.58
2022-12-01T07:33:36.930Z,29.47
2022-12-01T07:36:04.841Z,26.80
2022-12-01T07:38:33.582Z,97.30
2022-12-01T07:41:03.347Z,43.83
2022-12-01T07:43:31.987Z,51.10
2022-12-01T07:46:10.743Z,45.75
2022-12-01T07:48:39.355Z,29.12
2022-12-01T07:51:08.247Z,29.30
2022-12-01T07:53:35.797Z,26.52
2022-12-01T07:56:08.525Z,22.70
2022-12-01T07:58:36.620Z,24.65
2022-12-01T08:01:09.413Z,26.00
2022-12-01T08:03:37.451Z,22.35
2022-12-01T08:06:05.904Z,22.13
2022-12-01T08:08:35.051Z,21.60
2022-12-01T08:11:06.521Z,27.05
2022-12-01T08:13:33.907Z,0.70
2022-12-01T08:16:05.465Z,33.30
2022-12-01T08:18:39.980Z,35.58
2022-12-01T08:21:09.173Z,27.62
2022-12-01T08:23:36.915Z,24.80
2022-12-01T08:26:08.299Z,24.05
2022-12-01T08:28:36.323Z,20.15
2022-12-01T08:31:10.949Z,20.88
2022-12-01T08:33:38.296Z,19.35
2022-12-01T08:36:06.489Z,17.35
2022-12-01T08:38:33.871Z,17.85
2022-12-01T08:41:03.025Z,18.48
2022-12-01T08:46:18.069Z,19.50
2022-12-01T08:48:45.691Z,19.17
2022-12-01T08:51:15.542Z,17.62
2022-12-01T08:53:45.860Z,16.77
2022-12-01T08:56:21.212Z,16.65
2022-12-01T08:58:48.616Z,16.77
2022-12-01T09:01:16.910Z,18.20
2022-12-01T09:03:44.758Z,14.32
2022-12-01T09:06:22.806Z,17.20
2022-12-01T09:08:50.488Z,17.52
2022-12-01T09:11:18.990Z,18.73
2022-12-01T09:13:52.944Z,17.02
2022-12-01T09:16:22.327Z,20.02
2022-12-01T09:18:49.744Z,17.02
2022-12-01T09:21:26.635Z,14.23
2022-12-01T09:23:54.287Z,14.82
2022-12-01T09:26:22.140Z,18.33
2022-12-01T09:28:54.029Z,17.33
2022-12-01T09:31:23.523Z,19.02
2022-12-01T09:33:56.329Z,17.45
2022-12-01T09:36:24.324Z,16.17
2022-12-01T09:38:51.765Z,15.35
2022-12-01T09:41:26.308Z,15.43
2022-12-01T09:44:01.022Z,13.98
2022-12-01T09:46:34.763Z,14.98
2022-12-01T09:49:03.888Z,15.23
2022-12-01T09:51:36.112Z,13.00
2022-12-01T09:54:04.086Z,14.27
2022-12-01T09:56:36.444Z,15.77
2022-12-01T09:59:08.098Z,13.60
2022-12-01T10:01:41.870Z,17.48
2022-12-01T10:04:13.276Z,13.65
2022-12-01T10:06:54.607Z,16.55
2022-12-01T10:10:00.121Z,16.20
2022-12-01T10:12:33.390Z,14.95
2022-12-01T10:15:25.357Z,17.25
2022-12-01T10:18:13.728Z,18.87
2022-12-01T10:20:45.847Z,15.75
2022-12-01T10:23:41.805Z,14.52
2022-12-01T10:26:26.206Z,16.40
2022-12-01T10:29:27.874Z,15.43
2022-12-01T10:32:00.561Z,14.95
2022-12-01T10:34:30.649Z,15.13
2022-12-01T10:36:58.431Z,15.25
2022-12-01T10:39:30.002Z,15.52
2022-12-01T10:42:08.273Z,16.58
2022-12-01T10:44:36.149Z,14.27
2022-12-01T10:47:04.163Z,16.02
2022-12-01T10:49:40.125Z,14.23
2022-12-01T10:52:08.324Z,16.35
2022-12-01T10:54:40.670Z,15.88
2022-12-01T10:57:15.585Z,19.17
2022-12-01T11:00:02.267Z,14.27
2022-12-01T11:02:32.185Z,16.17
2022-12-01T11:05:05.305Z,16.80
2022-12-01T11:07:36.086Z,15.95
2022-12-01T11:10:17.675Z,21.45
2022-12-01T11:12:53.387Z,22.77
2022-12-01T11:15:27.167Z,22.27
2022-12-01T11:18:22.721Z,20.57
2022-12-01T11:21:15.116Z,18.15
2022-12-01T11:23:50.823Z,18.00
2022-12-01T11:26:33.011Z,18.77
2022-12-01T11:29:03.585Z,19.85
2022-12-01T11:31:42.606Z,17.85
2022-12-01T11:34:20.063Z,19.17
2022-12-01T11:36:50.391Z,17.02
2022-12-01T11:39:38.515Z,15.82
2022-12-01T11:42:25.097Z,18.10
2022-12-01T11:45:05.578Z,19.00
2022-12-01T11:47:32.953Z,17.27
2022-12-01T11:50:23.966Z,16.58
2022-12-01T11:52:51.260Z,19.20
2022-12-01T11:55:26.965Z,17.27
2022-12-01T11:57:57.500Z,17.95
2022-12-01T12:00:28.390Z,16.67
2022-12-01T12:03:20.011Z,17.15
2022-12-01T12:06:38.340Z,19.77
2022-12-01T12:09:16.246Z,20.58
2022-12-01T12:12:01.700Z,17.58
2022-12-01T12:14:36.077Z,18.67
2022-12-01T12:17:20.154Z,20.20
2022-12-01T12:20:07.643Z,18.33
2022-12-01T12:22:41.818Z,17.55
2022-12-01T12:25:23.296Z,17.55
2022-12-01T12:28:06.028Z,17.77
2022-12-01T12:30:50.925Z,16.60
2022-12-01T12:33:44.382Z,18.80
2022-12-01T12:36:35.914Z,18.02
2022-12-01T12:39:22.168Z,16.95
2022-12-01T12:41:52.629Z,17.15
2022-12-01T12:44:49.631Z,19.10
2022-12-01T12:48:14.422Z,14.52
2022-12-01T12:51:03.493Z,15.95
2022-12-01T12:53:40.399Z,18.02
2022-12-01T12:56:13.018Z,16.12
2022-12-01T12:58:53.761Z,17.20
2022-12-01T13:01:26.597Z,15.80
2022-12-01T13:04:00.705Z,22.50
2022-12-01T13:06:50.283Z,18.92
2022-12-01T13:09:22.142Z,14.90
2022-12-01T13:12:08.629Z,15.85
2022-12-01T13:14:39.991Z,17.77
2022-12-01T13:17:17.251Z,17.02
2022-12-01T13:19:45.908Z,17.73
2022-12-01T13:22:14.374Z,14.87
2022-12-01T13:24:42.052Z,17.02
2022-12-01T13:27:09.660Z,16.98
2022-12-01T13:29:47.757Z,15.80
2022-12-01T13:32:33.791Z,18.45
2022-12-01T13:35:05.528Z,17.05
2022-12-01T13:37:35.776Z,15.63
2022-12-01T13:40:22.949Z,16.67
2022-12-01T13:43:10.508Z,15.52
2022-12-01T13:45:40.225Z,16.62
2022-12-01T13:48:27.672Z,18.85
2022-12-01T13:50:57.784Z,21.08
2022-12-01T13:53:28.442Z,23.48
2022-12-01T13:56:04.529Z,25.02
2022-12-01T13:58:35.130Z,29.80
2022-12-01T14:01:21.107Z,21.62
2022-12-01T14:04:18.486Z,28.27
2022-12-01T14:06:50.758Z,31.55
2022-12-01T14:09:31.967Z,28.27
2022-12-01T14:12:03.001Z,23.50
2022-12-01T14:14:39.697Z,22.15
2022-12-01T14:17:24.355Z,26.23
2022-12-01T14:19:52.598Z,21.58
2022-12-01T14:22:39.973Z,17.52
2022-12-01T14:25:19.906Z,23.10
2022-12-01T14:27:59.777Z,27.48
2022-12-01T14:30:39.611Z,20.98
2022-12-01T14:33:47.501Z,21.48
2022-12-01T14:36:17.933Z,18.85
2022-12-01T14:38:46.468Z,19.27
2022-12-01T14:41:25.820Z,16.77
2022-12-01T14:44:03.847Z,18.65
2022-12-01T14:46:42.637Z,19.35
2022-12-01T14:49:17.923Z,19.73
2022-12-01T14:51:47.678Z,23.10
2022-12-01T14:54:19.561Z,18.17
2022-12-01T14:56:48.424Z,25.95
2022-12-01T14:59:22.139Z,24.45
2022-12-01T15:01:51.684Z,31.40
2022-12-01T15:04:19.821Z,39.20
2022-12-01T15:06:47.463Z,47.80
2022-12-01T15:09:36.019Z,47.90
2022-12-01T15:12:08.869Z,41.33
2022-12-01T15:14:38.817Z,38.22
2022-12-01T15:17:08.885Z,30.02
2022-12-01T15:19:38.748Z,29.23
2022-12-01T15:22:17.185Z,22.55
2022-12-01T15:24:45.779Z,26.80
2022-12-01T15:27:31.230Z,23.98
2022-12-01T15:30:03.466Z,19.65
2022-12-01T15:32:32.969Z,21.35
2022-12-01T15:35:05.387Z,21.40
2022-12-01T15:37:42.625Z,17.58
2022-12-01T15:43:07.384Z,22.10
2022-12-01T15:45:51.547Z,29.27
2022-12-01T15:48:34.752Z,37.92
2022-12-01T15:51:18.293Z,34.08
2022-12-01T15:53:50.056Z,33.30
2022-12-01T15:56:25.220Z,33.05
2022-12-01T15:58:56.888Z,37.53
2022-12-01T16:01:30.130Z,31.75
2022-12-01T16:04:03.769Z,34.08
2022-12-01T16:06:34.154Z,34.25
2022-12-01T16:09:16.609Z,36.60
2022-12-01T16:12:04.114Z,45.78
2022-12-01T16:14:35.006Z,44.10
2022-12-01T16:17:03.065Z,45.25
2022-12-01T16:19:32.178Z,45.80
2022-12-01T16:22:12.081Z,56.28
2022-12-01T16:24:46.771Z,62.97
2022-12-01T16:27:29.070Z,67.60
2022-12-01T16:30:02.117Z,63.80
2022-12-01T16:32:39.716Z,67.75
2022-12-01T16:35:27.362Z,152.18
2022-12-01T16:37:55.404Z,132.60
2022-12-01T16:40:23.746Z,128.23
2022-12-01T16:42:51.034Z,140.40
2022-12-01T16:45:19.320Z,141.23
2022-12-01T16:47:49.600Z,111.65
2022-12-01T16:50:19.591Z,112.50
2022-12-01T16:52:47.343Z,101.55
2022-12-01T16:55:52.692Z,91.87
2022-12-01T16:58:20.976Z,79.62
2022-12-01T17:00:52.797Z,76.70
2022-12-01T17:03:22.980Z,77.60
2022-12-01T17:05:50.828Z,73.20
2022-12-01T17:08:18.312Z,75.70
2022-12-01T17:10:49.761Z,64.05
2022-12-01T17:13:23.472Z,62.47
2022-12-01T17:15:54.271Z,58.78
2022-12-01T17:18:23.634Z,58.72
2022-12-01T17:21:03.143Z,55.95
2022-12-01T17:23:33.036Z,53.15
2022-12-01T17:26:01.377Z,50.20
2022-12-01T17:28:29.636Z,64.53
2022-12-01T17:31:01.529Z,77.78
2022-12-01T17:33:29.603Z,79.90
2022-12-01T17:36:01.767Z,105.40
2022-12-01T17:38:29.487Z,93.97
2022-12-01T17:41:11.418Z,79.03
2022-12-01T17:43:40.016Z,80.20
2022-12-01T17:46:09.518Z,78.43
2022-12-01T17:48:39.669Z,67.78
2022-12-01T17:51:09.892Z,57.03
2022-12-01T17:53:39.490Z,60.65
2022-12-01T17:56:13.924Z,62.30
2022-12-01T17:58:42.422Z,57.88
2022-12-01T18:01:16.109Z,62.30
2022-12-01T18:03:44.709Z,59.28
2022-12-01T18:06:12.638Z,58.72
2022-12-01T18:08:40.881Z,62.10
2022-12-01T18:11:11.957Z,57.80
2022-12-01T18:13:42.241Z,57.85
2022-12-01T18:16:12.889Z,53.00
2022-12-01T18:18:40.526Z,57.10
2022-12-01T18:21:11.437Z,49.53
2022-12-01T18:23:39.780Z,52.45
2022-12-01T18:26:15.708Z,47.38
2022-12-01T18:28:44.452Z,47.50
2022-12-01T18:31:15.886Z,53.60
2022-12-01T18:33:45.112Z,50.53
2022-12-01T18:36:18.716Z,51.72
2022-12-01T18:38:47.702Z,52.30
2022-12-01T18:41:16.905Z,66.57
2022-12-01T18:46:29.933Z,80.40
2022-12-01T18:49:02.357Z,73.55
2022-12-01T18:51:35.368Z,75.75
2022-12-01T18:54:07.200Z,94.75
2022-12-01T18:56:35.384Z,111.12
2022-12-01T18:59:07.586Z,103.90
2022-12-01T19:01:37.979Z,89.25
2022-12-01T19:04:07.892Z,92.90
2022-12-01T19:06:37.458Z,88.25
2022-12-01T19:09:06.868Z,75.80
2022-12-01T19:11:34.701Z,79.40
2022-12-01T19:14:03.977Z,75.57
2022-12-01T19:16:31.959Z,77.32
2022-12-01T19:19:01.880Z,74.03
2022-12-01T19:21:36.480Z,75.80
2022-12-01T19:24:04.578Z,69.60
2022-12-01T19:26:32.726Z,71.75
2022-12-01T19:29:00.782Z,79.40
2022-12-01T19:31:28.858Z,59.58
2022-12-01T19:33:57.045Z,62.67
2022-12-01T19:36:28.125Z,71.65
2022-12-01T19:38:57.638Z,73.60
2022-12-01T19:41:26.444Z,88.47
2022-12-01T19:43:56.307Z,80.55
2022-12-01T19:46:25.909Z,68.57
2022-12-01T19:49:00.692Z,62.60
2022-12-01T19:51:32.533Z,74.93
2022-12-01T19:54:03.077Z,65.45
2022-12-01T19:56:31.732Z,71.18
2022-12-01T19:59:00.965Z,66.80
2022-12-01T20:01:29.464Z,61.47
2022-12-01T20:03:57.849Z,61.65
2022-12-01T20:06:29.620Z,68.10
2022-12-01T20:08:59.941Z,66.00
2022-12-01T20:11:30.243Z,74.45
2022-12-01T20:13:57.901Z,93.18
2022-12-01T20:16:27.204Z,98.97
2022-12-01T20:18:55.451Z,95.10
2022-12-01T20:21:28.107Z,98.22
2022-12-01T20:24:00.638Z,78.85
2022-12-01T20:26:34.085Z,63.38
2022-12-01T20:29:08.423Z,63.17
2022-12-01T20:31:37.267Z,67.70
2022-12-01T20:34:13.694Z,72.03
2022-12-01T20:36:41.881Z,59.60
2022-12-01T20:39:10.174Z,52.35
2022-12-01T20:41:38.897Z,60.83
2022-12-01T20:44:07.937Z,62.75
2022-12-01T20:46:37.361Z,61.00
2022-12-01T20:49:08.322Z,50.58
2022-12-01T20:51:36.771Z,52.55
2022-12-01T20:56:54.985Z,52.28
2022-12-01T20:59:22.620Z,56.75
2022-12-01T21:01:50.412Z,49.47
2022-12-01T21:04:18.153Z,48.60
2022-12-01T21:06:46.794Z,53.85
2022-12-01T21:09:15.243Z,49.05
2022-12-01T21:12:07.280Z,50.38
2022-12-01T21:15:00.211Z,45.83
2022-12-01T21:17:36.576Z,49.25
2022-12-01T21:20:09.206Z,50.05
2022-12-01T21:22:37.010Z,52.38
2022-12-01T21:25:12.443Z,48.28
2022-12-01T21:27:40.092Z,45.97
2022-12-01T21:30:16.309Z,46.50
2022-12-01T21:32:44.681Z,49.30
2022-12-01T21:35:20.828Z,49.70
2022-12-01T21:37:49.283Z,51.70
2022-12-01T21:40:19.266Z,51.40
2022-12-01T21:42:46.635Z,60.65
2022-12-01T21:45:18.238Z,63.58
2022-12-01T21:47:45.571Z,4.35
2022-12-01T21:50:21.079Z,54.40
2022-12-01T21:52:49.110Z,53.30
2022-12-01T21:55:16.337Z,6.37
2022-12-01T21:57:48.404Z,53.08
2022-12-01T22:00:29.619Z,56.17
2022-12-01T22:03:00.307Z,54.60
2022-12-01T22:05:37.341Z,57.25
2022-12-01T22:08:07.726Z,55.50
2022-12-01T22:11:01.355Z,49.83
2022-12-01T22:13:44.188Z,46.85
2022-12-01T22:16:23.545Z,49.42
2022-12-01T22:18:54.050Z,48.45
2022-12-01T22:21:30.539Z,49.10
2022-12-01T22:24:06.011Z,47.83
2022-12-01T22:26:35.885Z,44.40
2022-12-01T22:29:16.611Z,49.60
2022-12-01T22:31:44.862Z,53.20
2022-12-01T22:34:14.186Z,48.50
2022-12-01T22:36:41.651Z,52.83
2022-12-01T22:39:26.270Z,53.15
2022-12-01T22:41:59.004Z,49.40
2022-12-01T22:44:28.039Z,49.50
2022-12-01T22:46:59.967Z,49.08
2022-12-01T22:49:29.801Z,51.60
2022-12-01T22:52:01.123Z,51.90
2022-12-01T22:54:39.062Z,43.87
2022-12-01T22:57:25.146Z,45.40
2022-12-01T22:59:53.151Z,48.75
2022-12-01T23:02:31.930Z,49.65
2022-12-01T23:05:01.554Z,45.05
2022-12-01T23:07:37.193Z,45.25
2022-12-01T23:10:20.836Z,45.55
2022-12-01T23:12:50.617Z,47.50
2022-12-01T23:15:34.913Z,47.75
2022-12-01T23:18:27.000Z,58.05
2022-12-01T23:20:58.937Z,45.03
2022-12-01T23:23:32.147Z,51.88
2022-12-01T23:26:01.780Z,56.35
2022-12-01T23:28:29.634Z,61.35
2022-12-01T23:30:58.932Z,7.50
2022-12-01T23:33:28.566Z,59.72
2022-12-01T23:35:59.880Z,59.47
2022-12-01T23:38:39.121Z,57.40
2022-12-01T23:41:23.972Z,50.60
2022-12-01T23:43:54.123Z,52.75
2022-12-01T23:46:24.545Z,53.80
2022-12-01T23:48:56.041Z,51.95
2022-12-01T23:51:50.295Z,55.70
2022-12-01T23:54:25.734Z,51.37
2022-12-01T23:56:56.165Z,52.70
2022-12-01T23:59:23.864Z,56.67
